sensor_id;sensor_type;location;lat;lon;timestamp;pressure;altitude;pressure_sealevel;temperature
76394;BMP180;65216;51.090;-115.352;2023-04-16T00:01:16;86978.60;;;22.70
76394;BMP180;65216;51.090;-115.352;2023-04-16T00:03:45;86962.40;;;22.70
76394;BMP180;65216;51.090;-115.352;2023-04-16T00:06:12;86978.20;;;22.70
76394;BMP180;65216;51.090;-115.352;2023-04-16T00:08:42;86963.60;;;22.70
76394;BMP180;65216;51.090;-115.352;2023-04-16T00:11:10;86968.40;;;22.70
76394;BMP180;65216;51.090;-115.352;2023-04-16T00:13:38;86955.40;;;22.70
76394;BMP180;65216;51.090;-115.352;2023-04-16T00:16:08;86972.00;;;22.70
76394;BMP180;65216;51.090;-115.352;2023-04-16T00:18:35;86959.60;;;22.70
76394;BMP180;65216;51.090;-115.352;2023-04-16T00:21:02;86956.20;;;22.70
76394;BMP180;65216;51.090;-115.352;2023-04-16T00:23:30;86962.40;;;22.70
76394;BMP180;65216;51.090;-115.352;2023-04-16T00:25:57;86952.80;;;22.70
76394;BMP180;65216;51.090;-115.352;2023-04-16T00:28:26;86958.60;;;22.70
76394;BMP180;65216;51.090;-115.352;2023-04-16T00:30:56;86949.80;;;22.70
76394;BMP180;65216;51.090;-115.352;2023-04-16T00:33:24;86952.20;;;22.70
76394;BMP180;65216;51.090;-115.352;2023-04-16T00:35:51;86952.40;;;22.68
76394;BMP180;65216;51.090;-115.352;2023-04-16T00:38:18;86955.40;;;22.60
76394;BMP180;65216;51.090;-115.352;2023-04-16T00:40:48;86959.80;;;22.60
76394;BMP180;65216;51.090;-115.352;2023-04-16T00:43:23;86956.00;;;22.60
76394;BMP180;65216;51.090;-115.352;2023-04-16T00:45:52;86963.20;;;22.60
76394;BMP180;65216;51.090;-115.352;2023-04-16T00:48:22;86953.20;;;22.60
76394;BMP180;65216;51.090;-115.352;2023-04-16T00:50:51;86968.40;;;22.50
76394;BMP180;65216;51.090;-115.352;2023-04-16T00:53:21;86958.60;;;22.50
76394;BMP180;65216;51.090;-115.352;2023-04-16T00:55:50;86954.60;;;22.50
76394;BMP180;65216;51.090;-115.352;2023-04-16T00:58:17;86963.20;;;22.50
76394;BMP180;65216;51.090;-115.352;2023-04-16T01:00:44;86954.20;;;22.50
76394;BMP180;65216;51.090;-115.352;2023-04-16T01:03:11;86961.60;;;22.40
76394;BMP180;65216;51.090;-115.352;2023-04-16T01:05:39;86945.40;;;22.40
76394;BMP180;65216;51.090;-115.352;2023-04-16T01:08:13;86950.00;;;22.40
76394;BMP180;65216;51.090;-115.352;2023-04-16T01:10:44;86953.60;;;22.40
76394;BMP180;65216;51.090;-115.352;2023-04-16T01:13:11;86949.00;;;22.30
76394;BMP180;65216;51.090;-115.352;2023-04-16T01:15:39;86945.00;;;22.30
76394;BMP180;65216;51.090;-115.352;2023-04-16T01:18:18;86944.60;;;22.30
76394;BMP180;65216;51.090;-115.352;2023-04-16T01:20:46;86948.40;;;22.30
76394;BMP180;65216;51.090;-115.352;2023-04-16T01:23:16;86950.80;;;22.22
76394;BMP180;65216;51.090;-115.352;2023-04-16T01:25:48;86953.00;;;22.20
76394;BMP180;65216;51.090;-115.352;2023-04-16T01:28:18;86955.20;;;22.20
76394;BMP180;65216;51.090;-115.352;2023-04-16T01:30:48;86952.00;;;22.20
76394;BMP180;65216;51.090;-115.352;2023-04-16T01:33:16;86944.00;;;22.20
76394;BMP180;65216;51.090;-115.352;2023-04-16T01:35:44;86951.40;;;22.14
76394;BMP180;65216;51.090;-115.352;2023-04-16T01:38:11;86943.20;;;22.10
76394;BMP180;65216;51.090;-115.352;2023-04-16T01:40:38;86949.80;;;22.10
76394;BMP180;65216;51.090;-115.352;2023-04-16T01:43:09;86942.60;;;22.10
76394;BMP180;65216;51.090;-115.352;2023-04-16T01:45:36;86952.40;;;22.10
76394;BMP180;65216;51.090;-115.352;2023-04-16T01:48:04;86946.60;;;22.00
76394;BMP180;65216;51.090;-115.352;2023-04-16T01:50:31;86941.00;;;22.00
76394;BMP180;65216;51.090;-115.352;2023-04-16T01:52:59;86950.20;;;22.00
76394;BMP180;65216;51.090;-115.352;2023-04-16T01:55:27;86936.20;;;22.00
76394;BMP180;65216;51.090;-115.352;2023-04-16T01:57:54;86941.00;;;21.94
76394;BMP180;65216;51.090;-115.352;2023-04-16T02:00:22;86933.80;;;21.90
76394;BMP180;65216;51.090;-115.352;2023-04-16T02:02:49;86933.80;;;21.90
76394;BMP180;65216;51.090;-115.352;2023-04-16T02:05:16;86944.00;;;21.90
76394;BMP180;65216;51.090;-115.352;2023-04-16T02:07:43;86947.20;;;21.90
76394;BMP180;65216;51.090;-115.352;2023-04-16T02:10:16;86941.40;;;21.90
76394;BMP180;65216;51.090;-115.352;2023-04-16T02:12:43;86935.00;;;21.82
76394;BMP180;65216;51.090;-115.352;2023-04-16T02:15:11;86938.00;;;21.80
76394;BMP180;65216;51.090;-115.352;2023-04-16T02:17:38;86941.00;;;21.80
76394;BMP180;65216;51.090;-115.352;2023-04-16T02:20:06;86950.60;;;21.80
76394;BMP180;65216;51.090;-115.352;2023-04-16T02:22:34;86949.40;;;21.80
76394;BMP180;65216;51.090;-115.352;2023-04-16T02:25:05;86958.80;;;21.80
76394;BMP180;65216;51.090;-115.352;2023-04-16T02:27:35;86953.20;;;21.80
76394;BMP180;65216;51.090;-115.352;2023-04-16T02:30:02;86954.40;;;21.80
76394;BMP180;65216;51.090;-115.352;2023-04-16T02:32:32;86945.00;;;21.80
76394;BMP180;65216;51.090;-115.352;2023-04-16T02:34:59;86942.40;;;21.78
76394;BMP180;65216;51.090;-115.352;2023-04-16T02:37:29;86945.20;;;21.70
76394;BMP180;65216;51.090;-115.352;2023-04-16T02:39:59;86944.40;;;21.70
76394;BMP180;65216;51.090;-115.352;2023-04-16T02:42:26;86938.80;;;21.70
76394;BMP180;65216;51.090;-115.352;2023-04-16T02:44:54;86950.00;;;21.70
76394;BMP180;65216;51.090;-115.352;2023-04-16T02:47:21;86945.20;;;21.70
76394;BMP180;65216;51.090;-115.352;2023-04-16T02:49:48;86948.60;;;21.70
76394;BMP180;65216;51.090;-115.352;2023-04-16T02:52:15;86941.60;;;21.60
76394;BMP180;65216;51.090;-115.352;2023-04-16T02:54:43;86937.80;;;21.60
76394;BMP180;65216;51.090;-115.352;2023-04-16T02:57:10;86936.80;;;21.60
76394;BMP180;65216;51.090;-115.352;2023-04-16T02:59:37;86938.60;;;21.60
76394;BMP180;65216;51.090;-115.352;2023-04-16T03:02:06;86937.00;;;21.60
76394;BMP180;65216;51.090;-115.352;2023-04-16T03:04:33;86941.60;;;21.60
76394;BMP180;65216;51.090;-115.352;2023-04-16T03:07:00;86933.80;;;21.58
76394;BMP180;65216;51.090;-115.352;2023-04-16T03:09:28;86946.00;;;21.56
76394;BMP180;65216;51.090;-115.352;2023-04-16T03:11:58;86948.60;;;21.60
76394;BMP180;65216;51.090;-115.352;2023-04-16T03:14:25;86945.20;;;21.56
76394;BMP180;65216;51.090;-115.352;2023-04-16T03:16:52;86943.00;;;21.52
76394;BMP180;65216;51.090;-115.352;2023-04-16T03:19:19;86943.20;;;21.50
76394;BMP180;65216;51.090;-115.352;2023-04-16T03:21:49;86942.60;;;21.50
76394;BMP180;65216;51.090;-115.352;2023-04-16T03:24:16;86948.60;;;21.50
76394;BMP180;65216;51.090;-115.352;2023-04-16T03:26:43;86955.00;;;21.50
76394;BMP180;65216;51.090;-115.352;2023-04-16T03:29:11;86953.40;;;21.50
76394;BMP180;65216;51.090;-115.352;2023-04-16T03:31:38;86953.00;;;21.50
76394;BMP180;65216;51.090;-115.352;2023-04-16T03:34:05;86947.80;;;21.42
76394;BMP180;65216;51.090;-115.352;2023-04-16T03:36:32;86953.20;;;21.40
76394;BMP180;65216;51.090;-115.352;2023-04-16T03:38:59;86956.20;;;21.40
76394;BMP180;65216;51.090;-115.352;2023-04-16T03:41:26;86963.60;;;21.40
76394;BMP180;65216;51.090;-115.352;2023-04-16T03:43:54;86964.60;;;21.40
76394;BMP180;65216;51.090;-115.352;2023-04-16T03:46:21;86963.80;;;21.40
76394;BMP180;65216;51.090;-115.352;2023-04-16T03:48:48;86969.80;;;21.40
76394;BMP180;65216;51.090;-115.352;2023-04-16T03:51:15;86967.60;;;21.40
76394;BMP180;65216;51.090;-115.352;2023-04-16T03:53:42;86969.20;;;21.40
76394;BMP180;65216;51.090;-115.352;2023-04-16T03:56:09;86965.40;;;21.40
76394;BMP180;65216;51.090;-115.352;2023-04-16T03:58:37;86967.40;;;21.40
76394;BMP180;65216;51.090;-115.352;2023-04-16T04:01:04;86968.40;;;21.38
76394;BMP180;65216;51.090;-115.352;2023-04-16T04:03:32;86969.60;;;21.30
76394;BMP180;65216;51.090;-115.352;2023-04-16T04:05:59;86974.20;;;21.30
76394;BMP180;65216;51.090;-115.352;2023-04-16T04:08:26;86977.80;;;21.30
76394;BMP180;65216;51.090;-115.352;2023-04-16T04:10:53;86973.60;;;21.30
76394;BMP180;65216;51.090;-115.352;2023-04-16T04:13:21;86970.20;;;21.30
76394;BMP180;65216;51.090;-115.352;2023-04-16T04:15:47;86968.00;;;21.30
76394;BMP180;65216;51.090;-115.352;2023-04-16T04:18:14;86967.00;;;21.30
76394;BMP180;65216;51.090;-115.352;2023-04-16T04:20:43;86966.80;;;21.30
76394;BMP180;65216;51.090;-115.352;2023-04-16T04:23:10;86970.40;;;21.30
76394;BMP180;65216;51.090;-115.352;2023-04-16T04:25:37;86971.40;;;21.28
76394;BMP180;65216;51.090;-115.352;2023-04-16T04:28:05;86965.60;;;21.24
76394;BMP180;65216;51.090;-115.352;2023-04-16T04:30:32;86966.60;;;21.20
76394;BMP180;65216;51.090;-115.352;2023-04-16T04:33:01;86969.20;;;21.20
76394;BMP180;65216;51.090;-115.352;2023-04-16T04:35:28;86973.20;;;21.20
76394;BMP180;65216;51.090;-115.352;2023-04-16T04:37:55;86974.80;;;21.20
76394;BMP180;65216;51.090;-115.352;2023-04-16T04:40:23;86975.80;;;21.20
76394;BMP180;65216;51.090;-115.352;2023-04-16T04:42:50;86971.20;;;21.20
76394;BMP180;65216;51.090;-115.352;2023-04-16T04:45:17;86970.20;;;21.20
76394;BMP180;65216;51.090;-115.352;2023-04-16T04:47:52;86966.00;;;21.16
76394;BMP180;65216;51.090;-115.352;2023-04-16T04:50:20;86967.80;;;21.14
76394;BMP180;65216;51.090;-115.352;2023-04-16T04:52:47;86971.20;;;21.10
76394;BMP180;65216;51.090;-115.352;2023-04-16T04:55:14;86971.80;;;21.10
76394;BMP180;65216;51.090;-115.352;2023-04-16T04:57:44;86968.80;;;21.10
76394;BMP180;65216;51.090;-115.352;2023-04-16T05:00:12;86970.80;;;21.10
76394;BMP180;65216;51.090;-115.352;2023-04-16T05:02:41;86974.00;;;21.10
76394;BMP180;65216;51.090;-115.352;2023-04-16T05:05:09;86973.60;;;21.10
76394;BMP180;65216;51.090;-115.352;2023-04-16T05:07:36;86973.60;;;21.10
76394;BMP180;65216;51.090;-115.352;2023-04-16T05:10:03;86971.40;;;21.10
76394;BMP180;65216;51.090;-115.352;2023-04-16T05:12:31;86968.60;;;21.10
76394;BMP180;65216;51.090;-115.352;2023-04-16T05:14:58;86967.40;;;21.10
76394;BMP180;65216;51.090;-115.352;2023-04-16T05:17:30;86968.20;;;21.10
76394;BMP180;65216;51.090;-115.352;2023-04-16T05:19:58;86960.20;;;21.10
76394;BMP180;65216;51.090;-115.352;2023-04-16T05:22:29;86957.20;;;21.10
76394;BMP180;65216;51.090;-115.352;2023-04-16T05:24:56;86957.60;;;21.10
76394;BMP180;65216;51.090;-115.352;2023-04-16T05:27:23;86960.20;;;21.08
76394;BMP180;65216;51.090;-115.352;2023-04-16T05:29:50;86964.60;;;21.10
76394;BMP180;65216;51.090;-115.352;2023-04-16T05:32:18;86961.80;;;21.08
76394;BMP180;65216;51.090;-115.352;2023-04-16T05:34:45;86959.00;;;21.08
76394;BMP180;65216;51.090;-115.352;2023-04-16T05:37:12;86956.80;;;21.06
76394;BMP180;65216;51.090;-115.352;2023-04-16T05:39:39;86956.40;;;21.06
76394;BMP180;65216;51.090;-115.352;2023-04-16T05:42:06;86952.80;;;21.08
76394;BMP180;65216;51.090;-115.352;2023-04-16T05:44:34;86952.40;;;21.06
76394;BMP180;65216;51.090;-115.352;2023-04-16T05:47:01;86955.60;;;21.02
76394;BMP180;65216;51.090;-115.352;2023-04-16T05:49:29;86955.40;;;21.08
76394;BMP180;65216;51.090;-115.352;2023-04-16T05:51:56;86953.60;;;21.08
76394;BMP180;65216;51.090;-115.352;2023-04-16T05:54:23;86952.20;;;21.00
76394;BMP180;65216;51.090;-115.352;2023-04-16T05:56:50;86951.00;;;21.02
76394;BMP180;65216;51.090;-115.352;2023-04-16T05:59:21;86955.40;;;21.04
76394;BMP180;65216;51.090;-115.352;2023-04-16T06:01:49;86949.00;;;21.04
76394;BMP180;65216;51.090;-115.352;2023-04-16T06:04:19;86941.80;;;21.02
76394;BMP180;65216;51.090;-115.352;2023-04-16T06:06:46;86946.80;;;21.04
76394;BMP180;65216;51.090;-115.352;2023-04-16T06:09:13;86949.00;;;21.00
76394;BMP180;65216;51.090;-115.352;2023-04-16T06:11:44;86947.00;;;21.02
76394;BMP180;65216;51.090;-115.352;2023-04-16T06:14:17;86943.40;;;21.02
76394;BMP180;65216;51.090;-115.352;2023-04-16T06:16:44;86944.40;;;21.00
76394;BMP180;65216;51.090;-115.352;2023-04-16T06:19:11;86941.60;;;21.00
76394;BMP180;65216;51.090;-115.352;2023-04-16T06:21:39;86939.60;;;21.00
76394;BMP180;65216;51.090;-115.352;2023-04-16T06:24:06;86946.00;;;21.00
76394;BMP180;65216;51.090;-115.352;2023-04-16T06:26:33;86936.80;;;21.00
76394;BMP180;65216;51.090;-115.352;2023-04-16T06:29:01;86943.20;;;21.00
76394;BMP180;65216;51.090;-115.352;2023-04-16T06:31:29;86941.80;;;21.00
76394;BMP180;65216;51.090;-115.352;2023-04-16T06:33:56;86944.60;;;21.00
76394;BMP180;65216;51.090;-115.352;2023-04-16T06:36:24;86952.40;;;21.00
76394;BMP180;65216;51.090;-115.352;2023-04-16T06:38:54;86944.80;;;21.00
76394;BMP180;65216;51.090;-115.352;2023-04-16T06:41:21;86946.80;;;21.00
76394;BMP180;65216;51.090;-115.352;2023-04-16T06:43:51;86941.60;;;21.00
76394;BMP180;65216;51.090;-115.352;2023-04-16T06:46:21;86949.00;;;21.00
76394;BMP180;65216;51.090;-115.352;2023-04-16T06:48:48;86955.60;;;21.00
76394;BMP180;65216;51.090;-115.352;2023-04-16T06:51:16;86959.00;;;21.00
76394;BMP180;65216;51.090;-115.352;2023-04-16T06:53:43;86958.00;;;21.00
76394;BMP180;65216;51.090;-115.352;2023-04-16T06:56:11;86957.60;;;21.00
76394;BMP180;65216;51.090;-115.352;2023-04-16T06:58:41;86955.00;;;21.00
76394;BMP180;65216;51.090;-115.352;2023-04-16T07:01:08;86958.80;;;21.00
76394;BMP180;65216;51.090;-115.352;2023-04-16T07:03:38;86964.00;;;21.00
76394;BMP180;65216;51.090;-115.352;2023-04-16T07:06:08;86964.60;;;21.00
76394;BMP180;65216;51.090;-115.352;2023-04-16T07:08:36;86962.20;;;21.00
76394;BMP180;65216;51.090;-115.352;2023-04-16T07:11:03;86963.00;;;21.00
76394;BMP180;65216;51.090;-115.352;2023-04-16T07:13:30;86953.00;;;21.00
76394;BMP180;65216;51.090;-115.352;2023-04-16T07:15:57;86963.40;;;21.00
76394;BMP180;65216;51.090;-115.352;2023-04-16T07:18:25;86965.60;;;21.00
76394;BMP180;65216;51.090;-115.352;2023-04-16T07:20:52;86960.20;;;21.00
76394;BMP180;65216;51.090;-115.352;2023-04-16T07:23:19;86961.20;;;21.00
76394;BMP180;65216;51.090;-115.352;2023-04-16T07:25:46;86960.40;;;21.00
76394;BMP180;65216;51.090;-115.352;2023-04-16T07:28:13;86951.00;;;21.00
76394;BMP180;65216;51.090;-115.352;2023-04-16T07:30:43;86947.00;;;21.00
76394;BMP180;65216;51.090;-115.352;2023-04-16T07:33:11;86946.40;;;21.00
76394;BMP180;65216;51.090;-115.352;2023-04-16T07:35:38;86955.40;;;21.00
76394;BMP180;65216;51.090;-115.352;2023-04-16T07:38:05;86956.20;;;21.00
76394;BMP180;65216;51.090;-115.352;2023-04-16T07:40:33;86954.00;;;21.00
76394;BMP180;65216;51.090;-115.352;2023-04-16T07:43:00;86947.80;;;21.00
76394;BMP180;65216;51.090;-115.352;2023-04-16T07:45:27;86946.00;;;21.00
76394;BMP180;65216;51.090;-115.352;2023-04-16T07:47:54;86952.20;;;21.00
76394;BMP180;65216;51.090;-115.352;2023-04-16T07:50:22;86955.20;;;20.90
76394;BMP180;65216;51.090;-115.352;2023-04-16T07:52:49;86951.60;;;20.92
76394;BMP180;65216;51.090;-115.352;2023-04-16T07:55:19;86943.00;;;20.96
76394;BMP180;65216;51.090;-115.352;2023-04-16T07:57:47;86948.60;;;20.94
76394;BMP180;65216;51.090;-115.352;2023-04-16T08:00:17;86944.60;;;20.98
76394;BMP180;65216;51.090;-115.352;2023-04-16T08:02:45;86942.80;;;20.94
76394;BMP180;65216;51.090;-115.352;2023-04-16T08:05:12;86941.20;;;20.90
76394;BMP180;65216;51.090;-115.352;2023-04-16T08:07:45;86940.20;;;20.90
76394;BMP180;65216;51.090;-115.352;2023-04-16T08:10:12;86941.20;;;20.90
76394;BMP180;65216;51.090;-115.352;2023-04-16T08:12:39;86933.00;;;20.90
76394;BMP180;65216;51.090;-115.352;2023-04-16T08:15:07;86941.40;;;20.90
76394;BMP180;65216;51.090;-115.352;2023-04-16T08:17:34;86930.40;;;20.90
76394;BMP180;65216;51.090;-115.352;2023-04-16T08:20:04;86935.40;;;20.90
76394;BMP180;65216;51.090;-115.352;2023-04-16T08:22:32;86937.20;;;20.90
76394;BMP180;65216;51.090;-115.352;2023-04-16T08:25:00;86938.00;;;20.90
76394;BMP180;65216;51.090;-115.352;2023-04-16T08:27:27;86935.40;;;20.90
76394;BMP180;65216;51.090;-115.352;2023-04-16T08:29:57;86939.80;;;20.90
76394;BMP180;65216;51.090;-115.352;2023-04-16T08:32:25;86937.80;;;20.90
76394;BMP180;65216;51.090;-115.352;2023-04-16T08:34:52;86929.00;;;20.90
76394;BMP180;65216;51.090;-115.352;2023-04-16T08:37:19;86934.80;;;20.90
76394;BMP180;65216;51.090;-115.352;2023-04-16T08:39:49;86936.80;;;20.90
76394;BMP180;65216;51.090;-115.352;2023-04-16T08:42:44;86934.00;;;20.90
76394;BMP180;65216;51.090;-115.352;2023-04-16T08:45:17;86926.80;;;20.90
76394;BMP180;65216;51.090;-115.352;2023-04-16T08:47:49;86928.80;;;20.90
76394;BMP180;65216;51.090;-115.352;2023-04-16T08:50:24;86914.80;;;20.90
76394;BMP180;65216;51.090;-115.352;2023-04-16T08:52:52;86914.00;;;20.90
76394;BMP180;65216;51.090;-115.352;2023-04-16T08:58:12;86919.60;;;20.90
76394;BMP180;65216;51.090;-115.352;2023-04-16T09:00:40;86924.00;;;20.90
76394;BMP180;65216;51.090;-115.352;2023-04-16T09:03:12;86918.40;;;20.90
76394;BMP180;65216;51.090;-115.352;2023-04-16T09:05:41;86921.40;;;20.88
76394;BMP180;65216;51.090;-115.352;2023-04-16T09:08:12;86923.20;;;20.90
76394;BMP180;65216;51.090;-115.352;2023-04-16T09:10:39;86916.00;;;20.90
76394;BMP180;65216;51.090;-115.352;2023-04-16T09:13:06;86912.40;;;20.86
76394;BMP180;65216;51.090;-115.352;2023-04-16T09:15:38;86903.40;;;20.82
76394;BMP180;65216;51.090;-115.352;2023-04-16T09:18:05;86909.80;;;20.84
76394;BMP180;65216;51.090;-115.352;2023-04-16T09:20:33;86915.80;;;20.80
76394;BMP180;65216;51.090;-115.352;2023-04-16T09:23:03;86914.20;;;20.82
76394;BMP180;65216;51.090;-115.352;2023-04-16T09:25:34;86905.20;;;20.86
76394;BMP180;65216;51.090;-115.352;2023-04-16T09:28:02;86887.60;;;20.86
76394;BMP180;65216;51.090;-115.352;2023-04-16T09:30:29;86889.20;;;20.90
76394;BMP180;65216;51.090;-115.352;2023-04-16T09:33:20;86897.00;;;20.90
76394;BMP180;65216;51.090;-115.352;2023-04-16T09:35:52;86892.20;;;20.80
76394;BMP180;65216;51.090;-115.352;2023-04-16T09:38:20;86892.40;;;20.80
76394;BMP180;65216;51.090;-115.352;2023-04-16T09:40:47;86887.40;;;20.82
76394;BMP180;65216;51.090;-115.352;2023-04-16T09:43:31;86884.00;;;20.80
76394;BMP180;65216;51.090;-115.352;2023-04-16T09:45:59;86887.00;;;20.80
76394;BMP180;65216;51.090;-115.352;2023-04-16T09:48:33;86887.80;;;20.80
76394;BMP180;65216;51.090;-115.352;2023-04-16T09:51:00;86886.40;;;20.80
76394;BMP180;65216;51.090;-115.352;2023-04-16T09:53:29;86885.80;;;20.80
76394;BMP180;65216;51.090;-115.352;2023-04-16T09:56:03;86884.00;;;20.80
76394;BMP180;65216;51.090;-115.352;2023-04-16T09:58:31;86883.80;;;20.80
76394;BMP180;65216;51.090;-115.352;2023-04-16T10:01:05;86875.20;;;20.80
76394;BMP180;65216;51.090;-115.352;2023-04-16T10:03:35;86877.60;;;20.80
76394;BMP180;65216;51.090;-115.352;2023-04-16T10:06:19;86874.20;;;20.80
76394;BMP180;65216;51.090;-115.352;2023-04-16T10:08:51;86873.00;;;20.80
76394;BMP180;65216;51.090;-115.352;2023-04-16T10:11:20;86874.80;;;20.80
76394;BMP180;65216;51.090;-115.352;2023-04-16T10:13:48;86873.60;;;20.80
76394;BMP180;65216;51.090;-115.352;2023-04-16T10:16:18;86872.00;;;20.80
76394;BMP180;65216;51.090;-115.352;2023-04-16T10:18:46;86867.80;;;20.80
76394;BMP180;65216;51.090;-115.352;2023-04-16T10:21:13;86867.60;;;20.80
76394;BMP180;65216;51.090;-115.352;2023-04-16T10:23:43;86870.60;;;20.80
76394;BMP180;65216;51.090;-115.352;2023-04-16T10:26:10;86865.60;;;20.78
76394;BMP180;65216;51.090;-115.352;2023-04-16T10:28:38;86866.40;;;20.70
76394;BMP180;65216;51.090;-115.352;2023-04-16T10:31:08;86860.80;;;20.70
76394;BMP180;65216;51.090;-115.352;2023-04-16T10:33:40;86858.20;;;20.70
76394;BMP180;65216;51.090;-115.352;2023-04-16T10:36:12;86864.60;;;20.70
76394;BMP180;65216;51.090;-115.352;2023-04-16T10:38:48;86860.00;;;20.60
76394;BMP180;65216;51.090;-115.352;2023-04-16T10:41:15;86866.60;;;20.60
76394;BMP180;65216;51.090;-115.352;2023-04-16T10:43:49;86865.00;;;20.60
76394;BMP180;65216;51.090;-115.352;2023-04-16T10:46:37;86865.40;;;20.60
76394;BMP180;65216;51.090;-115.352;2023-04-16T10:49:24;86863.80;;;20.60
76394;BMP180;65216;51.090;-115.352;2023-04-16T10:51:59;86862.40;;;20.60
76394;BMP180;65216;51.090;-115.352;2023-04-16T10:54:36;86860.40;;;20.60
76394;BMP180;65216;51.090;-115.352;2023-04-16T10:57:07;86868.00;;;20.50
76394;BMP180;65216;51.090;-115.352;2023-04-16T10:59:37;86862.00;;;20.50
76394;BMP180;65216;51.090;-115.352;2023-04-16T11:02:14;86857.80;;;20.50
76394;BMP180;65216;51.090;-115.352;2023-04-16T11:04:48;86864.40;;;20.50
76394;BMP180;65216;51.090;-115.352;2023-04-16T11:07:33;86864.80;;;20.50
76394;BMP180;65216;51.090;-115.352;2023-04-16T11:10:03;86870.00;;;20.50
76394;BMP180;65216;51.090;-115.352;2023-04-16T11:12:42;86862.60;;;20.46
76394;BMP180;65216;51.090;-115.352;2023-04-16T11:15:16;86869.20;;;20.42
76394;BMP180;65216;51.090;-115.352;2023-04-16T11:17:51;86869.60;;;20.40
76394;BMP180;65216;51.090;-115.352;2023-04-16T11:22:55;86866.20;;;20.40
76394;BMP180;65216;51.090;-115.352;2023-04-16T11:25:25;86868.20;;;20.40
76394;BMP180;65216;51.090;-115.352;2023-04-16T11:27:53;86865.60;;;20.40
76394;BMP180;65216;51.090;-115.352;2023-04-16T11:30:32;86861.20;;;20.40
76394;BMP180;65216;51.090;-115.352;2023-04-16T11:33:02;86867.60;;;20.40
76394;BMP180;65216;51.090;-115.352;2023-04-16T11:35:30;86866.20;;;20.40
76394;BMP180;65216;51.090;-115.352;2023-04-16T11:38:00;86867.00;;;20.40
76394;BMP180;65216;51.090;-115.352;2023-04-16T11:40:31;86865.20;;;20.38
76394;BMP180;65216;51.090;-115.352;2023-04-16T11:43:12;86860.20;;;20.36
76394;BMP180;65216;51.090;-115.352;2023-04-16T11:45:59;86861.40;;;20.30
76394;BMP180;65216;51.090;-115.352;2023-04-16T11:48:52;86860.40;;;20.30
76394;BMP180;65216;51.090;-115.352;2023-04-16T11:51:21;86853.40;;;20.30
76394;BMP180;65216;51.090;-115.352;2023-04-16T11:53:53;86855.40;;;20.30
76394;BMP180;65216;51.090;-115.352;2023-04-16T11:56:33;86857.00;;;20.30
76394;BMP180;65216;51.090;-115.352;2023-04-16T11:59:14;86853.80;;;20.30
76394;BMP180;65216;51.090;-115.352;2023-04-16T12:01:53;86854.40;;;20.30
76394;BMP180;65216;51.090;-115.352;2023-04-16T12:04:26;86853.00;;;20.30
76394;BMP180;65216;51.090;-115.352;2023-04-16T12:07:13;86848.40;;;20.30
76394;BMP180;65216;51.090;-115.352;2023-04-16T12:09:43;86850.20;;;20.30
76394;BMP180;65216;51.090;-115.352;2023-04-16T12:12:30;86846.60;;;20.30
76394;BMP180;65216;51.090;-115.352;2023-04-16T12:14:58;86842.80;;;20.28
76394;BMP180;65216;51.090;-115.352;2023-04-16T12:17:30;86845.20;;;20.26
76394;BMP180;65216;51.090;-115.352;2023-04-16T12:20:02;86842.40;;;20.20
76394;BMP180;65216;51.090;-115.352;2023-04-16T12:22:38;86841.20;;;20.20
76394;BMP180;65216;51.090;-115.352;2023-04-16T12:25:10;86838.80;;;20.20
76394;BMP180;65216;51.090;-115.352;2023-04-16T12:27:53;86833.60;;;20.20
76394;BMP180;65216;51.090;-115.352;2023-04-16T12:30:25;86833.40;;;20.20
76394;BMP180;65216;51.090;-115.352;2023-04-16T12:33:14;86835.60;;;20.20
76394;BMP180;65216;51.090;-115.352;2023-04-16T12:35:42;86842.20;;;20.20
76394;BMP180;65216;51.090;-115.352;2023-04-16T12:38:11;86841.00;;;20.20
76394;BMP180;65216;51.090;-115.352;2023-04-16T12:40:40;86839.40;;;20.20
76394;BMP180;65216;51.090;-115.352;2023-04-16T12:43:09;86837.40;;;20.20
76394;BMP180;65216;51.090;-115.352;2023-04-16T12:45:38;86834.40;;;20.20
76394;BMP180;65216;51.090;-115.352;2023-04-16T12:48:06;86826.00;;;20.20
76394;BMP180;65216;51.090;-115.352;2023-04-16T12:50:33;86824.80;;;20.20
76394;BMP180;65216;51.090;-115.352;2023-04-16T12:53:01;86826.40;;;20.20
76394;BMP180;65216;51.090;-115.352;2023-04-16T12:55:28;86826.00;;;20.20
76394;BMP180;65216;51.090;-115.352;2023-04-16T12:57:55;86817.60;;;20.20
76394;BMP180;65216;51.090;-115.352;2023-04-16T13:00:23;86816.40;;;20.20
76394;BMP180;65216;51.090;-115.352;2023-04-16T13:02:50;86815.20;;;20.20
76394;BMP180;65216;51.090;-115.352;2023-04-16T13:05:17;86809.00;;;20.20
76394;BMP180;65216;51.090;-115.352;2023-04-16T13:07:45;86811.20;;;20.20
76394;BMP180;65216;51.090;-115.352;2023-04-16T13:10:12;86808.80;;;20.20
76394;BMP180;65216;51.090;-115.352;2023-04-16T13:12:39;86811.00;;;20.22
76394;BMP180;65216;51.090;-115.352;2023-04-16T13:15:07;86808.00;;;20.24
76394;BMP180;65216;51.090;-115.352;2023-04-16T13:17:34;86803.60;;;20.20
76394;BMP180;65216;51.090;-115.352;2023-04-16T13:20:01;86801.00;;;20.26
76394;BMP180;65216;51.090;-115.352;2023-04-16T13:22:29;86793.00;;;20.30
76394;BMP180;65216;51.090;-115.352;2023-04-16T13:24:56;86797.40;;;20.30
76394;BMP180;65216;51.090;-115.352;2023-04-16T13:27:23;86803.80;;;20.30
76394;BMP180;65216;51.090;-115.352;2023-04-16T13:29:50;86803.60;;;20.30
76394;BMP180;65216;51.090;-115.352;2023-04-16T13:32:17;86802.40;;;20.30
76394;BMP180;65216;51.090;-115.352;2023-04-16T13:34:44;86805.00;;;20.30
76394;BMP180;65216;51.090;-115.352;2023-04-16T13:37:12;86803.60;;;20.30
76394;BMP180;65216;51.090;-115.352;2023-04-16T13:39:39;86805.80;;;20.30
76394;BMP180;65216;51.090;-115.352;2023-04-16T13:42:07;86805.60;;;20.30
76394;BMP180;65216;51.090;-115.352;2023-04-16T13:44:33;86809.80;;;20.30
76394;BMP180;65216;51.090;-115.352;2023-04-16T13:47:01;86815.60;;;20.30
76394;BMP180;65216;51.090;-115.352;2023-04-16T13:49:27;86804.20;;;20.30